RYR82FL EBCI-LDZD
Flight info
| Callsign | RYR82FL |
|---|---|
| Flight time | N/A |
| Altitude | 37000 |
| Route | RITAX M624 DIK M150 PITES DCT KRH DCT UTABA DCT BEMKI DCT ELMEM DCT DIRAB DCT VESAL DCT PEVAL DCT LOS |
| Aircraft | A320/M-SDE3FGHIRWY/LB1 |
Departure
| Time | N/A |
|---|---|
| Airport | Brussels South Charleroi Airport (EBCI) |
Arrival
| Time | 2026-04-23 10:37 |
|---|---|
| Airport | Zadar Airport (LDZD) |
| Time | Latitude | Longitude | Altitude | Speed | Heading |
|---|---|---|---|---|---|
| 2026-04-23 10:18 | 44.97062 | 13.78655 | 30392 ft | 464 kts | 128° |
| 2026-04-23 10:19 | 44.94895 | 13.82051 | 29297 ft | 465 kts | 128° |
| 2026-04-23 10:19 | 44.92755 | 13.85389 | 28847 ft | 453 kts | 128° |
| 2026-04-23 10:19 | 44.90648 | 13.88668 | 28145 ft | 448 kts | 128° |
| 2026-04-23 10:19 | 44.88564 | 13.91910 | 27489 ft | 443 kts | 128° |
| 2026-04-23 10:20 | 44.86510 | 13.95110 | 26829 ft | 438 kts | 128° |
| 2026-04-23 10:20 | 44.84480 | 13.98279 | 26181 ft | 434 kts | 128° |
| 2026-04-23 10:20 | 44.82465 | 14.01421 | 25530 ft | 430 kts | 128° |
| 2026-04-23 10:20 | 44.80470 | 14.04526 | 24891 ft | 426 kts | 128° |
| 2026-04-23 10:21 | 44.78483 | 14.07611 | 24264 ft | 423 kts | 128° |
| 2026-04-23 10:21 | 44.76511 | 14.10665 | 23612 ft | 420 kts | 128° |
| 2026-04-23 10:21 | 44.74556 | 14.13684 | 22962 ft | 415 kts | 128° |
| 2026-04-23 10:21 | 44.72623 | 14.16663 | 22390 ft | 410 kts | 128° |
| 2026-04-23 10:22 | 44.70713 | 14.19610 | 21823 ft | 406 kts | 128° |
| 2026-04-23 10:22 | 44.68820 | 14.22531 | 21281 ft | 402 kts | 128° |
| 2026-04-23 10:22 | 44.66941 | 14.25434 | 20730 ft | 400 kts | 128° |
| 2026-04-23 10:22 | 44.65094 | 14.28282 | 20205 ft | 398 kts | 128° |
| 2026-04-23 10:23 | 44.63231 | 14.31152 | 19665 ft | 396 kts | 129° |
| 2026-04-23 10:23 | 44.61380 | 14.33999 | 19130 ft | 394 kts | 129° |
| 2026-04-23 10:23 | 44.59534 | 14.36832 | 18568 ft | 392 kts | 129° |
| 2026-04-23 10:23 | 44.57698 | 14.39647 | 17962 ft | 390 kts | 129° |
| 2026-04-23 10:24 | 44.55871 | 14.42442 | 17375 ft | 387 kts | 129° |
| 2026-04-23 10:24 | 44.54060 | 14.45212 | 16807 ft | 384 kts | 129° |
| 2026-04-23 10:24 | 44.52202 | 14.47887 | 16226 ft | 384 kts | 135° |
| 2026-04-23 10:24 | 44.50180 | 14.50303 | 15646 ft | 380 kts | 136° |
| 2026-04-23 10:25 | 44.48171 | 14.52697 | 15056 ft | 377 kts | 136° |
| 2026-04-23 10:25 | 44.46182 | 14.55068 | 14478 ft | 375 kts | 136° |
| 2026-04-23 10:25 | 44.44200 | 14.57432 | 13862 ft | 373 kts | 136° |
| 2026-04-23 10:25 | 44.42231 | 14.59774 | 13253 ft | 369 kts | 137° |
| 2026-04-23 10:26 | 44.40283 | 14.62088 | 12668 ft | 365 kts | 137° |
| 2026-04-23 10:26 | 44.38361 | 14.64371 | 12095 ft | 362 kts | 137° |
| 2026-04-23 10:26 | 44.36452 | 14.66637 | 11514 ft | 359 kts | 137° |
| 2026-04-23 10:26 | 44.34672 | 14.69037 | 10951 ft | 353 kts | 127° |
| 2026-04-23 10:27 | 44.33310 | 14.71800 | 10730 ft | 337 kts | 115° |
| 2026-04-23 10:27 | 44.32329 | 14.74676 | 10603 ft | 319 kts | 111° |
| 2026-04-23 10:27 | 44.31430 | 14.77411 | 10451 ft | 300 kts | 111° |
| 2026-04-23 10:27 | 44.30569 | 14.80012 | 9968 ft | 292 kts | 111° |
| 2026-04-23 10:28 | 44.29726 | 14.82561 | 9818 ft | 288 kts | 111° |
| 2026-04-23 10:28 | 44.28970 | 14.85018 | 9695 ft | 285 kts | 103° |
| 2026-04-23 10:28 | 44.28696 | 14.87718 | 9366 ft | 278 kts | 84° |
| 2026-04-23 10:28 | 44.29076 | 14.90323 | 8971 ft | 273 kts | 65° |
| 2026-04-23 10:29 | 44.30022 | 14.92581 | 8561 ft | 269 kts | 48° |
| 2026-04-23 10:29 | 44.31307 | 14.94432 | 8155 ft | 260 kts | 43° |
| 2026-04-23 10:29 | 44.32551 | 14.96187 | 7769 ft | 249 kts | 44° |
| 2026-04-23 10:29 | 44.33735 | 14.97890 | 7399 ft | 240 kts | 48° |
| 2026-04-23 10:30 | 44.34469 | 14.99912 | 7048 ft | 234 kts | 77° |
| 2026-04-23 10:30 | 44.34333 | 15.02144 | 6704 ft | 232 kts | 109° |
| 2026-04-23 10:30 | 44.33416 | 15.03968 | 6345 ft | 230 kts | 131° |
| 2026-04-23 10:30 | 44.32271 | 15.05491 | 6003 ft | 223 kts | 133° |
| 2026-04-23 10:31 | 44.31162 | 15.06969 | 5699 ft | 218 kts | 131° |
| 2026-04-23 10:31 | 44.30082 | 15.08440 | 5403 ft | 217 kts | 131° |
| 2026-04-23 10:31 | 44.29011 | 15.09905 | 5104 ft | 211 kts | 131° |
| 2026-04-23 10:31 | 44.27988 | 15.11303 | 4848 ft | 202 kts | 131° |
| 2026-04-23 10:32 | 44.26999 | 15.12655 | 4551 ft | 197 kts | 131° |
| 2026-04-23 10:32 | 44.26020 | 15.13994 | 4276 ft | 196 kts | 131° |
| 2026-04-23 10:32 | 44.25045 | 15.15326 | 4015 ft | 196 kts | 130° |
| 2026-04-23 10:32 | 44.24082 | 15.16641 | 3746 ft | 192 kts | 131° |
| 2026-04-23 10:33 | 44.23133 | 15.17934 | 3499 ft | 188 kts | 131° |
| 2026-04-23 10:33 | 44.22216 | 15.19184 | 3241 ft | 185 kts | 131° |
| 2026-04-23 10:33 | 44.21304 | 15.20425 | 2998 ft | 176 kts | 131° |
| 2026-04-23 10:33 | 44.20454 | 15.21585 | 2748 ft | 171 kts | 131° |
| 2026-04-23 10:34 | 44.19607 | 15.22738 | 2480 ft | 165 kts | 133° |
| 2026-04-23 10:34 | 44.18808 | 15.23825 | 2248 ft | 159 kts | 136° |
| 2026-04-23 10:34 | 44.18025 | 15.24893 | 2022 ft | 158 kts | 137° |
| 2026-04-23 10:34 | 44.17235 | 15.25967 | 1793 ft | 157 kts | 137° |
| 2026-04-23 10:35 | 44.16472 | 15.27004 | 1603 ft | 155 kts | 137° |
| 2026-04-23 10:35 | 44.15690 | 15.28065 | 1415 ft | 158 kts | 135° |
| 2026-04-23 10:35 | 44.14973 | 15.29039 | 1239 ft | 156 kts | 133° |
| 2026-04-23 10:35 | 44.14216 | 15.30067 | 1038 ft | 148 kts | 134° |
| 2026-04-23 10:36 | 44.13495 | 15.31046 | 844 ft | 143 kts | 133° |
| 2026-04-23 10:36 | 44.12785 | 15.32010 | 649 ft | 143 kts | 133° |
| 2026-04-23 10:36 | 44.12076 | 15.32989 | 428 ft | 144 kts | 134° |
| 2026-04-23 10:36 | 44.11357 | 15.33962 | 299 ft | 136 kts | 135° |
| 2026-04-23 10:37 | 44.10846 | 15.34650 | 295 ft | 60 kts | 135° |
| 2026-04-23 10:37 | 44.10665 | 15.34894 | 296 ft | 31 kts | 136° |
| 2026-04-23 10:37 | 44.10504 | 15.35108 | 296 ft | 34 kts | 136° |
| 2026-04-23 10:37 | 44.10330 | 15.35342 | 293 ft | 36 kts | 136° |
| 2026-04-23 10:38 | 44.10158 | 15.35578 | 296 ft | 32 kts | 135° |
| 2026-04-23 10:38 | 44.10032 | 15.35710 | 296 ft | 5 kts | 201° |
| 2026-04-23 10:38 | 44.09995 | 15.35669 | 297 ft | 10 kts | 223° |
| 2026-04-23 10:38 | 44.09930 | 15.35579 | 294 ft | 17 kts | 225° |
| 2026-04-23 10:39 | 44.09807 | 15.35538 | 290 ft | 23 kts | 186° |
| 2026-04-23 10:39 | 44.09660 | 15.35547 | 296 ft | 17 kts | 175° |
| 2026-04-23 10:39 | 44.09636 | 15.35493 | 293 ft | 8 kts | 265° |
| 2026-04-23 10:39 | 44.09659 | 15.35449 | 293 ft | 2 kts | 314° |
| 2026-04-23 10:40 | 44.09670 | 15.35437 | 293 ft | 0 kts | 324° |